GCLA Airport Information

Runway Information
Runway 36 Length 7218 ft width 148 ft
Elevation 103 ft Threshold ft Heading 359
Runway 18 Length 7218 ft Width 148 ft
Elevation 65 ft Threshold ft Heading 179
Airport Frequencies
Type APP Name CANARIAS A Frequency 126.1 MHZ
Type ATIS Name INFO Frequency 118.6 MHZ
Type GND Name GND Frequency 121.8 MHZ
Type TWR Name TWR Frequency 118.9 MHZ
Airport Navaids
Type DME Name La Palma Frequency 112400 KHZ
Type NDB Name La Palma Frequency 389 KHZ
Airport Weather Information & NOTAM
ADDS - METARS form results

(0147 UTC 13 January 2023)
Data provider http://aviationweather.gov/metar/data/
 
METAR text: GCLA 130130Z AUTO 02014KT 350V060 9999 BKN039 OVC050 19/12 Q1027
Conditions at: GCLA (LA PALMA AIRPORT, ES) observed 0130 UTC 13 January 2023
Temperature: 19.0°C (66°F)
Dewpoint: 12.0°C (54°F) [RH = 64%]
Pressure (altimeter): 30.32 inches Hg (1027.0 mb)
Winds: from the NNE (20 degrees) at 16 MPH (14 knots; 7.2 m/s)
Visibility: 6 or more miles (10+ km)
Ceiling: 3900 feet AGL
Clouds: broken clouds at 3900 feet AGL
overcast cloud deck at 5000 feet AGL
Weather: no significant weather observed at this time

METAR text: GCLA 130100Z AUTO 35011G21KT 9999 OVC047 19/11 Q1027
Conditions at: GCLA (LA PALMA AIRPORT, ES) observed 0100 UTC 13 January 2023
Temperature: 19.0°C (66°F)
Dewpoint: 11.0°C (52°F) [RH = 60%]
Pressure (altimeter): 30.32 inches Hg (1027.0 mb)
Winds: from the N (350 degrees) at 13 MPH (11 knots; 5.7 m/s)
gusting to 24 MPH (21 knots; 10.8 m/s)
Visibility: 6 or more miles (10+ km)
Ceiling: 4700 feet AGL
Clouds: overcast cloud deck at 4700 feet AGL
Weather: no significant weather observed at this time

Forecast for: GCLA (LA PALMA AIRPORT, ES)
Text: TAF GCLA 122000Z 1221/1321 02015KT 9999 BKN030 TX21/1314Z TN19/1306Z
Forecast period: 2100 UTC 12 January 2023 to 2100 UTC 13 January 2023
Forecast type: FROM: standard forecast or significant change
Winds: from the NNE (20 degrees) at 17 MPH (15 knots; 7.7 m/s)
Visibility: 6 or more miles (10+ km)
Ceiling: 3000 feet AGL
Clouds: broken clouds at 3000 feet AGL
Weather: no significant weather forecast for this period